TimeCST,TemperatureF,Dew PointF,Humidity,Sea Level PressureIn,VisibilityMPH,Wind Direction,Wind SpeedMPH,Gust SpeedMPH,PrecipitationIn,Events,Conditions,WindDirDegrees,DateUTC
12:15 AM,3.2,-2.2,78,30.30,10.0,NW,8.1,-,N/A,,Overcast,320,2014-01-02 06:15:00
12:35 AM,2.8,-2.4,79,30.30,10.0,NW,10.4,-,N/A,,Overcast,320,2014-01-02 06:35:00
12:55 AM,2.7,-2.7,78,30.29,10.0,NNW,9.2,-,N/A,,Overcast,330,2014-01-02 06:55:00
1:15 AM,1.4,-3.6,79,30.29,10.0,NW,9.2,-,N/A,,Mostly Cloudy,320,2014-01-02 07:15:00
1:35 AM,0.5,-4.0,81,30.29,10.0,NW,9.2,-,N/A,,Scattered Clouds,320,2014-01-02 07:35:00
1:55 AM,0.1,-4.2,82,30.30,10.0,NW,10.4,-,N/A,,Scattered Clouds,310,2014-01-02 07:55:00
2:15 AM,-0.4,-4.5,83,30.30,10.0,NW,6.9,-,N/A,,Clear,320,2014-01-02 08:15:00
2:35 AM,-0.4,-4.5,83,30.30,10.0,NW,8.1,-,N/A,Snow,Light Snow,320,2014-01-02 08:35:00
2:55 AM,0.9,-3.6,81,30.30,10.0,NW,11.5,-,N/A,,Mostly Cloudy,320,2014-01-02 08:55:00
3:15 AM,1.9,-3.1,79,30.30,10.0,NW,10.4,-,N/A,,Overcast,310,2014-01-02 09:15:00
3:35 AM,2.5,-2.6,79,30.30,10.0,NW,9.2,-,N/A,,Overcast,320,2014-01-02 09:35:00
3:55 AM,2.8,-2.4,79,30.30,10.0,NNW,15.0,-,N/A,,Overcast,330,2014-01-02 09:55:00
4:15 AM,3.0,-2.4,78,30.30,10.0,NNW,12.7,-,N/A,,Overcast,330,2014-01-02 10:15:00
4:35 AM,3.0,-2.6,78,30.30,10.0,NW,10.4,-,N/A,,Overcast,310,2014-01-02 10:35:00
4:55 AM,3.0,-2.4,78,30.31,10.0,NW,11.5,-,N/A,,Overcast,320,2014-01-02 10:55:00
5:15 AM,2.8,-2.6,78,30.31,10.0,NW,11.5,-,N/A,,Overcast,320,2014-01-02 11:15:00
5:35 AM,2.7,-2.7,78,30.31,10.0,NW,10.4,-,N/A,,Overcast,320,2014-01-02 11:35:00
5:55 AM,2.3,-3.1,78,30.32,10.0,NW,9.2,-,N/A,,Overcast,320,2014-01-02 11:55:00
6:15 AM,1.2,-4.0,79,30.32,10.0,NW,9.2,-,N/A,,Mostly Cloudy,310,2014-01-02 12:15:00
6:35 AM,0.5,-4.4,80,30.32,10.0,NW,9.2,-,N/A,,Mostly Cloudy,320,2014-01-02 12:35:00
6:55 AM,-0.4,-5.1,81,30.32,10.0,NW,8.1,-,N/A,,Scattered Clouds,320,2014-01-02 12:55:00
7:15 AM,-1.3,-5.4,83,30.33,10.0,NW,8.1,-,N/A,,Clear,320,2014-01-02 13:15:00
7:35 AM,-1.8,-6.2,82,30.33,10.0,NW,9.2,-,N/A,,Clear,310,2014-01-02 13:35:00
7:55 AM,-1.3,-5.8,81,30.35,10.0,WNW,8.1,-,N/A,,Mostly Cloudy,300,2014-01-02 13:55:00
8:15 AM,-0.8,-5.4,81,30.35,10.0,NW,9.2,-,N/A,,Overcast,320,2014-01-02 14:15:00
8:35 AM,-0.4,-5.4,79,30.35,10.0,NNW,11.5,-,N/A,,Overcast,330,2014-01-02 14:35:00
8:55 AM,0.3,-5.1,78,30.36,10.0,NW,10.4,-,N/A,,Overcast,320,2014-01-02 14:55:00
9:15 AM,0.9,-4.9,77,30.37,10.0,NW,11.5,-,N/A,,Overcast,320,2014-01-02 15:15:00
9:35 AM,1.4,-4.5,76,30.38,10.0,NW,12.7,-,N/A,,Overcast,310,2014-01-02 15:35:00
9:55 AM,1.4,-4.7,76,30.38,10.0,NNW,11.5,18.4,N/A,,Overcast,330,2014-01-02 15:55:00
10:15 AM,1.4,-4.9,75,30.40,10.0,NW,12.7,-,N/A,,Overcast,310,2014-01-02 16:15:00
10:35 AM,2.3,-4.5,73,30.41,10.0,NW,12.7,-,N/A,,Scattered Clouds,320,2014-01-02 16:35:00
10:55 AM,3.2,-4.4,71,30.40,10.0,NW,9.2,-,N/A,,Clear,310,2014-01-02 16:55:00
11:15 AM,3.6,-4.9,68,30.40,10.0,NW,11.5,-,N/A,,Clear,310,2014-01-02 17:15:00
11:35 AM,3.9,-4.7,67,30.39,10.0,NW,12.7,-,N/A,,Clear,310,2014-01-02 17:35:00
11:55 AM,4.6,-4.5,66,30.39,10.0,NW,12.7,-,N/A,,Clear,320,2014-01-02 17:55:00
12:15 PM,5.0,-4.5,65,30.38,10.0,NW,12.7,-,N/A,,Clear,310,2014-01-02 18:15:00
12:35 PM,5.7,-4.2,64,30.38,10.0,NW,12.7,-,N/A,,Clear,320,2014-01-02 18:35:00
12:55 PM,6.1,-4.2,63,30.38,10.0,NW,12.7,-,N/A,,Clear,320,2014-01-02 18:55:00
1:15 PM,6.6,-4.4,61,30.38,10.0,NNW,12.7,-,N/A,,Clear,340,2014-01-02 19:15:00
1:35 PM,6.8,-5.1,58,30.37,10.0,NNW,11.5,-,N/A,,Clear,340,2014-01-02 19:35:00
1:55 PM,6.8,-5.3,58,30.38,10.0,NNW,9.2,-,N/A,,Clear,330,2014-01-02 19:55:00
2:15 PM,7.3,-4.4,59,30.39,10.0,North,10.4,-,N/A,,Clear,350,2014-01-02 20:15:00
2:35 PM,7.3,-4.4,59,30.39,10.0,NNW,9.2,-,N/A,,Clear,340,2014-01-02 20:35:00
2:55 PM,7.0,-4.9,58,30.39,10.0,NNW,10.4,-,N/A,,Clear,340,2014-01-02 20:55:00
3:15 PM,6.8,-4.9,59,30.40,10.0,North,10.4,-,N/A,,Clear,350,2014-01-02 21:15:00
3:35 PM,6.8,-4.9,59,30.40,10.0,NNW,8.1,-,N/A,,Clear,340,2014-01-02 21:35:00
3:55 PM,6.1,-5.6,59,30.42,10.0,NNW,11.5,-,N/A,,Clear,340,2014-01-02 21:55:00
4:15 PM,5.9,-5.4,60,30.41,10.0,NW,9.2,-,N/A,,Clear,320,2014-01-02 22:15:00
4:35 PM,5.2,-5.1,63,30.43,10.0,NW,6.9,-,N/A,,Clear,320,2014-01-02 22:35:00
4:55 PM,4.1,-6.5,61,30.43,10.0,NNW,6.9,-,N/A,,Clear,330,2014-01-02 22:55:00
5:15 PM,3.2,-6.3,65,30.44,10.0,WNW,3.5,-,N/A,,Clear,300,2014-01-02 23:15:00
5:35 PM,2.7,-6.3,66,30.44,10.0,NW,3.5,-,N/A,,Clear,320,2014-01-02 23:35:00
5:55 PM,1.4,-7.1,68,30.44,10.0,NW,4.6,-,N/A,,Clear,320,2014-01-02 23:55:00
6:15 PM,0.3,-7.8,69,30.44,10.0,NW,9.2,-,N/A,,Clear,320,2014-01-03 00:15:00
6:35 PM,-0.6,-8.5,69,30.44,10.0,NW,6.9,-,N/A,,Clear,320,2014-01-03 00:35:00
6:55 PM,-0.0,-8.0,69,30.44,10.0,NNW,5.8,-,N/A,,Clear,330,2014-01-03 00:55:00
7:15 PM,-0.4,-8.1,70,30.44,10.0,NW,5.8,-,N/A,,Clear,310,2014-01-03 01:15:00
7:35 PM,-2.6,-9.6,72,30.44,10.0,NW,5.8,-,N/A,,Clear,320,2014-01-03 01:35:00
7:55 PM,-2.4,-9.0,73,30.45,10.0,NW,4.6,-,N/A,,Clear,310,2014-01-03 01:55:00
8:15 PM,-4.9,-10.7,76,30.45,10.0,Calm,Calm,-,N/A,,Clear,0,2014-01-03 02:15:00
8:35 PM,-6.3,-13.0,73,30.44,10.0,NW,3.5,-,N/A,,Clear,310,2014-01-03 02:35:00
8:55 PM,-4.7,-10.3,77,30.44,10.0,West,3.5,-,N/A,,Clear,260,2014-01-03 02:55:00
9:15 PM,-5.3,-11.0,76,30.43,10.0,WNW,4.6,-,N/A,,Clear,290,2014-01-03 03:15:00
9:55 PM,-4.2,-9.0,80,30.43,10.0,West,3.5,-,N/A,,Clear,270,2014-01-03 03:55:00
10:15 PM,-6.3,-11.7,77,30.43,10.0,WNW,3.5,-,N/A,,Clear,290,2014-01-03 04:15:00
10:35 PM,-5.4,-9.9,81,30.43,10.0,WNW,4.6,-,N/A,,Clear,300,2014-01-03 04:35:00
10:55 PM,-7.1,-11.7,80,30.43,10.0,WNW,4.6,-,N/A,,Clear,290,2014-01-03 04:55:00
11:15 PM,-6.7,-11.2,81,30.43,10.0,West,4.6,-,N/A,,Clear,270,2014-01-03 05:15:00
11:35 PM,-5.8,-10.5,80,30.42,10.0,West,3.5,-,N/A,,Clear,260,2014-01-03 05:35:00
11:55 PM,-6.0,-10.5,81,30.42,10.0,West,3.5,-,N/A,,Clear,260,2014-01-03 05:55:00